Philadelphia, Pennsylvania
Traffic Map
Current Weather Conditions
Philadelphia, Pennsylvania
Overcast Light Rain
Overcast
10°
Feels Like: 10°
Wind Chill: 10° Ceiling: 6000
Heat Index: 10° Visibility: 10mi
Dew Point: Wind: 20mph
Humidity: 52% Direction: 20° (NNE)
Pressure: 29.69in Gusts: 0mph
Raw Report DataKPHL 312154Z 02017KT 10SM -RA OVC060 10/01 A2969 RMK AO2 RAE11B32 SLP054 P0000 T01000006
Traffic Incident Summary
Active as of:
Severity:
Category:
InformationThere was an issue retrieving the traffic information for this location. Please try a different location or try again shortly.
Advertisements
Track Severe Weather on mobile